Airfield :







YOU CAN JOIN US ON...

 
LOGIN :

Register | Disclaimer

   EN    FR    IT 

 









Legend :    VFR   Marginal VFR   IFR   Intensive IFR   Very Intensive IFR
Visi :
Ceiling :
>= 8 km
>= 3000ft
5 to 8 km
1000 to 3000 ft
1500m to 5 km
500 to 1000 ft
800 to 1500m
200 to 500 ft
< 800m
< 200 ft
Symbols :   Thunderstorms  Fog  Heavy snow  Heavy precipitations  Wind > 20 kt






- Airport Elevation : 477 ft
- IATA code : YHZ


CYHZ - Halifax Stanfield Int.

CURRENT METAR :
  • 060600Z 20007KT 1 1/2SM BR OVC002 M00/M00 A2988 RMK ST8 SLP126

EXPIRED METARs :
  • 060513Z 21008KT 1 3/4SM BR OVC001 M01/M01 A2990 RMK ST8 SLP132
  • 060429Z 20008KT 15SM OVC003 M01/M01 A2990 RMK ST8 SLP133
  • 060400Z 18008KT 15SM OVC004 M01/M01 A2991 RMK ST8 SLP135
  • 060342Z 19009KT 15SM OVC005 M01/M01 A2991 RMK ST8 SLP138
  • 060333Z 18008KT 15SM SCT005 M01/M02 A2992 RMK SF4 SLP139

TAF TAF CYHZ
Valid from the 06 at 06:00 until the 07 at 06:00 UTC


060539Z 0606/0706 21008KT 11/2SM BR OVC002
TEMPO 0606/0608 6SM BR OVC004
PROB30 0606/0608 1/2SM FG VV001
FM060800 21010KT 2SM BR OVC003
TEMPO 0608/0610 P6SM NSW SCT003 BKN040 OVC120
FM061000 22012KT P6SM -RASN SCT005 OVC040
TEMPO 0610/0614 21/2SM -RASN BR OVC005
BECMG 0612/0614 28012G22KT
FM061400 28012G22KT P6SM BKN025
FM061700 30012G22KT P6SM FEW030
FM062300 30010KT P6SM BKN040 RMK NXT FCST BY 060900Z



MET'MAP, your aeronautical weather chart ! - Copyright ORBIFLY December 2007 - Disclaimer

ORBIFLY MET'MAP TEAM :

Programming & Development : Alexandra Zaïnal
Concept & original design : Baudouin d'Aumeries
Assistance for programming : Marc-Olivier Méhu
Technical & hardware support : Manuel Goepfert

Contact : metmap@orbifly.com




SOURCES & CREDITS :

   NOAA